sensor_id;sensor_type;location;lat;lon;timestamp;pressure;altitude;pressure_sealevel;temperature;humidity
9141;BME280;46330;50.822;7.126;2022-12-18T00:01:25;102215.41;;;-6.27;95.31
9141;BME280;46330;50.822;7.126;2022-12-18T00:03:55;102225.47;;;-6.28;95.02
9141;BME280;46330;50.822;7.126;2022-12-18T00:06:24;102215.28;;;-6.28;95.19
9141;BME280;46330;50.822;7.126;2022-12-18T00:08:55;102217.09;;;-6.27;94.81
9141;BME280;46330;50.822;7.126;2022-12-18T00:11:26;102217.09;;;-6.27;95.23
9141;BME280;46330;50.822;7.126;2022-12-18T00:13:56;102217.84;;;-6.28;94.92
9141;BME280;46330;50.822;7.126;2022-12-18T00:16:25;102222.16;;;-6.27;94.85
9141;BME280;46330;50.822;7.126;2022-12-18T00:18:56;102223.72;;;-6.29;95.37
9141;BME280;46330;50.822;7.126;2022-12-18T00:21:24;102225.38;;;-6.30;94.90
9141;BME280;46330;50.822;7.126;2022-12-18T00:23:52;102233.78;;;-6.31;94.65
9141;BME280;46330;50.822;7.126;2022-12-18T00:26:22;102230.69;;;-6.27;94.91
9141;BME280;46330;50.822;7.126;2022-12-18T00:28:58;102231.38;;;-6.29;94.39
9141;BME280;46330;50.822;7.126;2022-12-18T00:31:29;102221.06;;;-6.31;94.88
9141;BME280;46330;50.822;7.126;2022-12-18T00:33:58;102231.13;;;-6.32;94.36
9141;BME280;46330;50.822;7.126;2022-12-18T00:36:28;102231.13;;;-6.32;94.73
9141;BME280;46330;50.822;7.126;2022-12-18T00:38:57;102240.53;;;-6.31;94.55
9141;BME280;46330;50.822;7.126;2022-12-18T00:41:26;102239.63;;;-6.32;94.58
9141;BME280;46330;50.822;7.126;2022-12-18T00:44:15;102243.88;;;-6.32;94.53
9141;BME280;46330;50.822;7.126;2022-12-18T00:46:45;102254.13;;;-6.31;94.04
9141;BME280;46330;50.822;7.126;2022-12-18T00:49:13;102249.59;;;-6.35;94.30
9141;BME280;46330;50.822;7.126;2022-12-18T00:51:41;102232.66;;;-6.34;94.01
9141;BME280;46330;50.822;7.126;2022-12-18T00:54:10;102234.09;;;-6.38;93.61
9141;BME280;46330;50.822;7.126;2022-12-18T00:56:39;102239.31;;;-6.36;93.44
9141;BME280;46330;50.822;7.126;2022-12-18T00:59:16;102227.25;;;-6.39;93.91
9141;BME280;46330;50.822;7.126;2022-12-18T01:01:44;102223.81;;;-6.39;93.61
9141;BME280;46330;50.822;7.126;2022-12-18T01:04:13;102220.28;;;-6.41;93.99
9141;BME280;46330;50.822;7.126;2022-12-18T01:06:44;102226.91;;;-6.43;93.45
9141;BME280;46330;50.822;7.126;2022-12-18T01:09:12;102221.72;;;-6.45;93.40
9141;BME280;46330;50.822;7.126;2022-12-18T01:11:40;102221.59;;;-6.46;93.76
9141;BME280;46330;50.822;7.126;2022-12-18T01:14:09;102225.78;;;-6.47;93.36
9141;BME280;46330;50.822;7.126;2022-12-18T01:16:38;102214.25;;;-6.54;93.25
9141;BME280;46330;50.822;7.126;2022-12-18T01:19:06;102213.19;;;-6.57;93.79
9141;BME280;46330;50.822;7.126;2022-12-18T01:21:34;102227.56;;;-6.58;93.59
9141;BME280;46330;50.822;7.126;2022-12-18T01:24:03;102214.59;;;-6.61;94.00
9141;BME280;46330;50.822;7.126;2022-12-18T01:26:32;102222.91;;;-6.63;93.80
9141;BME280;46330;50.822;7.126;2022-12-18T01:29:00;102228.00;;;-6.63;93.40
9141;BME280;46330;50.822;7.126;2022-12-18T01:31:30;102215.91;;;-6.66;93.84
9141;BME280;46330;50.822;7.126;2022-12-18T01:34:03;102233.63;;;-6.67;94.06
9141;BME280;46330;50.822;7.126;2022-12-18T01:36:35;102239.59;;;-6.67;94.37
9141;BME280;46330;50.822;7.126;2022-12-18T01:39:04;102231.28;;;-6.64;93.46
9141;BME280;46330;50.822;7.126;2022-12-18T01:41:34;102229.66;;;-6.64;94.09
9141;BME280;46330;50.822;7.126;2022-12-18T01:47:36;102218.22;;;-6.69;93.68
9141;BME280;46330;50.822;7.126;2022-12-18T01:50:10;102217.22;;;-6.71;94.09
9141;BME280;46330;50.822;7.126;2022-12-18T01:52:41;102209.91;;;-6.78;93.83
9141;BME280;46330;50.822;7.126;2022-12-18T01:55:11;102226.81;;;-6.78;93.50
9141;BME280;46330;50.822;7.126;2022-12-18T01:57:40;102220.75;;;-6.80;94.06
9141;BME280;46330;50.822;7.126;2022-12-18T02:00:13;102226.72;;;-6.80;93.46
9141;BME280;46330;50.822;7.126;2022-12-18T02:02:43;102218.84;;;-6.83;93.85
9141;BME280;46330;50.822;7.126;2022-12-18T02:05:15;102213.63;;;-6.84;94.16
9141;BME280;46330;50.822;7.126;2022-12-18T02:07:52;102218.50;;;-6.87;93.93
9141;BME280;46330;50.822;7.126;2022-12-18T02:10:27;102218.72;;;-6.84;94.16
9141;BME280;46330;50.822;7.126;2022-12-18T02:13:09;102222.06;;;-6.85;94.67
9141;BME280;46330;50.822;7.126;2022-12-18T02:15:41;102228.00;;;-6.85;94.25
9141;BME280;46330;50.822;7.126;2022-12-18T02:18:14;102230.56;;;-6.85;94.54
9141;BME280;46330;50.822;7.126;2022-12-18T02:20:49;102225.38;;;-6.86;94.76
9141;BME280;46330;50.822;7.126;2022-12-18T02:23:35;102212.00;;;-6.84;94.46
9141;BME280;46330;50.822;7.126;2022-12-18T02:26:15;102216.97;;;-6.85;94.23
9141;BME280;46330;50.822;7.126;2022-12-18T02:28:46;102218.59;;;-6.97;94.43
9141;BME280;46330;50.822;7.126;2022-12-18T02:31:19;102222.13;;;-6.95;94.47
9141;BME280;46330;50.822;7.126;2022-12-18T02:33:49;102217.81;;;-6.96;94.52
9141;BME280;46330;50.822;7.126;2022-12-18T02:36:19;102219.22;;;-7.00;94.09
9141;BME280;46330;50.822;7.126;2022-12-18T02:38:50;102221.00;;;-6.99;94.42
9141;BME280;46330;50.822;7.126;2022-12-18T02:41:22;102223.44;;;-7.00;95.01
9141;BME280;46330;50.822;7.126;2022-12-18T02:43:55;102212.72;;;-6.96;94.86
9141;BME280;46330;50.822;7.126;2022-12-18T02:46:33;102207.78;;;-6.95;94.95
9141;BME280;46330;50.822;7.126;2022-12-18T02:49:21;102215.63;;;-6.92;94.89
9141;BME280;46330;50.822;7.126;2022-12-18T02:51:59;102211.66;;;-6.88;94.69
9141;BME280;46330;50.822;7.126;2022-12-18T02:54:51;102210.34;;;-6.83;94.26
9141;BME280;46330;50.822;7.126;2022-12-18T02:57:26;102209.00;;;-6.78;94.54
9141;BME280;46330;50.822;7.126;2022-12-18T03:00:02;102201.50;;;-6.77;94.02
9141;BME280;46330;50.822;7.126;2022-12-18T03:02:36;102200.53;;;-6.67;95.13
9141;BME280;46330;50.822;7.126;2022-12-18T03:05:12;102198.66;;;-6.70;94.35
9141;BME280;46330;50.822;7.126;2022-12-18T03:07:45;102208.28;;;-6.66;94.31
9141;BME280;46330;50.822;7.126;2022-12-18T03:10:19;102211.72;;;-6.65;93.98
9141;BME280;46330;50.822;7.126;2022-12-18T03:12:54;102208.94;;;-6.68;93.69
9141;BME280;46330;50.822;7.126;2022-12-18T03:15:27;102207.16;;;-6.69;93.73
9141;BME280;46330;50.822;7.126;2022-12-18T03:18:08;102214.69;;;-6.71;94.24
9141;BME280;46330;50.822;7.126;2022-12-18T03:20:39;102210.03;;;-6.76;93.96
9141;BME280;46330;50.822;7.126;2022-12-18T03:23:14;102204.16;;;-6.75;93.83
9141;BME280;46330;50.822;7.126;2022-12-18T03:25:48;102202.94;;;-6.80;94.06
9141;BME280;46330;50.822;7.126;2022-12-18T03:28:22;102187.22;;;-6.86;94.10
9141;BME280;46330;50.822;7.126;2022-12-18T03:30:59;102188.66;;;-6.90;93.98
9141;BME280;46330;50.822;7.126;2022-12-18T03:33:32;102184.78;;;-6.85;94.70
9141;BME280;46330;50.822;7.126;2022-12-18T03:36:03;102189.53;;;-6.89;94.39
9141;BME280;46330;50.822;7.126;2022-12-18T03:38:32;102183.56;;;-6.90;94.60
9141;BME280;46330;50.822;7.126;2022-12-18T03:41:04;102177.34;;;-6.93;94.82
9141;BME280;46330;50.822;7.126;2022-12-18T03:43:49;102181.78;;;-6.91;94.49
9141;BME280;46330;50.822;7.126;2022-12-18T03:46:25;102177.34;;;-6.93;94.21
9141;BME280;46330;50.822;7.126;2022-12-18T03:49:01;102171.16;;;-6.97;94.68
9141;BME280;46330;50.822;7.126;2022-12-18T03:51:37;102173.59;;;-6.98;94.52
9141;BME280;46330;50.822;7.126;2022-12-18T03:54:06;102185.19;;;-7.02;95.03
9141;BME280;46330;50.822;7.126;2022-12-18T03:56:42;102184.28;;;-7.02;94.67
9141;BME280;46330;50.822;7.126;2022-12-18T03:59:13;102174.78;;;-7.05;94.66
9141;BME280;46330;50.822;7.126;2022-12-18T04:01:46;102177.09;;;-7.08;94.90
9141;BME280;46330;50.822;7.126;2022-12-18T04:04:17;102175.97;;;-7.12;95.11
9141;BME280;46330;50.822;7.126;2022-12-18T04:06:47;102180.06;;;-7.14;94.73
9141;BME280;46330;50.822;7.126;2022-12-18T04:09:18;102179.19;;;-7.14;94.46
9141;BME280;46330;50.822;7.126;2022-12-18T04:11:47;102182.63;;;-7.14;94.79
9141;BME280;46330;50.822;7.126;2022-12-18T04:14:17;102175.50;;;-7.18;94.48
9141;BME280;46330;50.822;7.126;2022-12-18T04:16:49;102159.84;;;-7.12;94.64
9141;BME280;46330;50.822;7.126;2022-12-18T04:19:21;102167.38;;;-7.14;94.64
9141;BME280;46330;50.822;7.126;2022-12-18T04:21:51;102164.16;;;-7.11;94.81
9141;BME280;46330;50.822;7.126;2022-12-18T04:24:19;102164.25;;;-7.10;94.50
9141;BME280;46330;50.822;7.126;2022-12-18T04:26:59;102161.50;;;-7.13;94.36
9141;BME280;46330;50.822;7.126;2022-12-18T04:29:33;102176.19;;;-7.20;94.75
9141;BME280;46330;50.822;7.126;2022-12-18T04:32:01;102180.00;;;-7.25;94.93
9141;BME280;46330;50.822;7.126;2022-12-18T04:34:30;102171.63;;;-7.24;95.00
9141;BME280;46330;50.822;7.126;2022-12-18T04:36:58;102177.47;;;-7.25;95.21
9141;BME280;46330;50.822;7.126;2022-12-18T04:39:26;102167.78;;;-7.19;95.40
9141;BME280;46330;50.822;7.126;2022-12-18T04:42:03;102163.47;;;-7.20;95.14
9141;BME280;46330;50.822;7.126;2022-12-18T04:44:32;102169.22;;;-7.23;95.07
9141;BME280;46330;50.822;7.126;2022-12-18T04:47:00;102181.25;;;-7.20;94.75
9141;BME280;46330;50.822;7.126;2022-12-18T04:49:28;102173.97;;;-7.16;94.87
9141;BME280;46330;50.822;7.126;2022-12-18T04:51:56;102175.09;;;-7.12;95.25
9141;BME280;46330;50.822;7.126;2022-12-18T04:54:24;102171.78;;;-7.11;95.14
9141;BME280;46330;50.822;7.126;2022-12-18T04:56:51;102169.56;;;-7.07;95.05
9141;BME280;46330;50.822;7.126;2022-12-18T04:59:20;102169.03;;;-7.02;94.80
9141;BME280;46330;50.822;7.126;2022-12-18T05:01:50;102167.25;;;-7.03;95.12
9141;BME280;46330;50.822;7.126;2022-12-18T05:04:19;102162.31;;;-7.02;94.78
9141;BME280;46330;50.822;7.126;2022-12-18T05:06:47;102161.53;;;-7.01;94.68
9141;BME280;46330;50.822;7.126;2022-12-18T05:09:14;102152.66;;;-7.06;94.86
9141;BME280;46330;50.822;7.126;2022-12-18T05:11:43;102160.53;;;-7.03;94.77
9141;BME280;46330;50.822;7.126;2022-12-18T05:14:11;102162.31;;;-7.02;94.50
9141;BME280;46330;50.822;7.126;2022-12-18T05:16:39;102156.47;;;-7.01;94.87
9141;BME280;46330;50.822;7.126;2022-12-18T05:19:08;102151.59;;;-6.98;94.98
9141;BME280;46330;50.822;7.126;2022-12-18T05:21:37;102133.69;;;-6.99;94.89
9141;BME280;46330;50.822;7.126;2022-12-18T05:24:05;102143.09;;;-6.98;94.75
9141;BME280;46330;50.822;7.126;2022-12-18T05:26:33;102144.88;;;-6.97;94.79
9141;BME280;46330;50.822;7.126;2022-12-18T05:29:00;102156.69;;;-6.98;95.27
9141;BME280;46330;50.822;7.126;2022-12-18T05:31:28;102142.84;;;-7.01;94.97
9141;BME280;46330;50.822;7.126;2022-12-18T05:34:04;102152.50;;;-6.97;95.01
9141;BME280;46330;50.822;7.126;2022-12-18T05:36:33;102154.16;;;-6.98;95.10
9141;BME280;46330;50.822;7.126;2022-12-18T05:39:01;102149.06;;;-6.98;94.78
9141;BME280;46330;50.822;7.126;2022-12-18T05:41:29;102140.66;;;-6.97;95.07
9141;BME280;46330;50.822;7.126;2022-12-18T05:43:57;102153.34;;;-6.97;95.07
9141;BME280;46330;50.822;7.126;2022-12-18T05:46:26;102147.50;;;-6.96;95.07
9141;BME280;46330;50.822;7.126;2022-12-18T05:48:54;102160.97;;;-6.97;95.24
9141;BME280;46330;50.822;7.126;2022-12-18T05:51:22;102162.66;;;-6.97;95.25
9141;BME280;46330;50.822;7.126;2022-12-18T05:53:51;102165.06;;;-6.99;95.53
9141;BME280;46330;50.822;7.126;2022-12-18T05:56:21;102169.63;;;-6.95;95.73
9141;BME280;46330;50.822;7.126;2022-12-18T05:58:51;102173.16;;;-6.93;94.95
9141;BME280;46330;50.822;7.126;2022-12-18T06:01:21;102164.09;;;-6.89;95.28
9141;BME280;46330;50.822;7.126;2022-12-18T06:03:49;102171.97;;;-6.86;95.23
9141;BME280;46330;50.822;7.126;2022-12-18T06:06:20;102174.59;;;-6.85;95.47
9141;BME280;46330;50.822;7.126;2022-12-18T06:08:50;102185.81;;;-6.83;95.33
9141;BME280;46330;50.822;7.126;2022-12-18T06:11:19;102199.63;;;-6.79;95.13
9141;BME280;46330;50.822;7.126;2022-12-18T06:13:49;102194.53;;;-6.79;95.31
9141;BME280;46330;50.822;7.126;2022-12-18T06:16:24;102199.97;;;-6.75;95.19
9141;BME280;46330;50.822;7.126;2022-12-18T06:18:52;102195.75;;;-6.74;95.01
9141;BME280;46330;50.822;7.126;2022-12-18T06:21:20;102198.22;;;-6.76;95.16
9141;BME280;46330;50.822;7.126;2022-12-18T06:23:48;102204.94;;;-6.76;95.06
9141;BME280;46330;50.822;7.126;2022-12-18T06:26:17;102203.81;;;-6.80;94.91
9141;BME280;46330;50.822;7.126;2022-12-18T06:28:53;102215.78;;;-6.79;95.19
9141;BME280;46330;50.822;7.126;2022-12-18T06:31:21;102217.44;;;-6.79;95.37
9141;BME280;46330;50.822;7.126;2022-12-18T06:33:49;102213.34;;;-6.77;95.65
9141;BME280;46330;50.822;7.126;2022-12-18T06:36:17;102212.34;;;-6.79;95.88
9141;BME280;46330;50.822;7.126;2022-12-18T06:38:46;102207.50;;;-6.76;95.39
9141;BME280;46330;50.822;7.126;2022-12-18T06:41:15;102209.69;;;-6.81;95.56
9141;BME280;46330;50.822;7.126;2022-12-18T06:43:45;102201.81;;;-6.84;95.61
9141;BME280;46330;50.822;7.126;2022-12-18T06:46:13;102198.38;;;-6.84;95.19
9141;BME280;46330;50.822;7.126;2022-12-18T06:48:41;102194.50;;;-6.91;95.23
9141;BME280;46330;50.822;7.126;2022-12-18T06:51:09;102197.47;;;-6.96;95.06
9141;BME280;46330;50.822;7.126;2022-12-18T06:53:37;102205.53;;;-7.02;95.03
9141;BME280;46330;50.822;7.126;2022-12-18T06:56:07;102211.38;;;-7.03;95.00
9141;BME280;46330;50.822;7.126;2022-12-18T06:58:36;102214.34;;;-7.09;95.09
9141;BME280;46330;50.822;7.126;2022-12-18T07:01:07;102202.72;;;-7.17;95.53
9141;BME280;46330;50.822;7.126;2022-12-18T07:03:36;102206.69;;;-7.20;95.30
9141;BME280;46330;50.822;7.126;2022-12-18T07:06:05;102193.50;;;-7.26;95.78
9141;BME280;46330;50.822;7.126;2022-12-18T07:08:34;102205.97;;;-7.29;96.43
9141;BME280;46330;50.822;7.126;2022-12-18T07:11:03;102207.72;;;-7.28;96.45
9141;BME280;46330;50.822;7.126;2022-12-18T07:13:31;102193.69;;;-7.35;96.47
9141;BME280;46330;50.822;7.126;2022-12-18T07:16:06;102199.53;;;-7.36;96.94
9141;BME280;46330;50.822;7.126;2022-12-18T07:18:43;102190.66;;;-7.41;96.76
9141;BME280;46330;50.822;7.126;2022-12-18T07:21:12;102208.84;;;-7.46;96.87
9141;BME280;46330;50.822;7.126;2022-12-18T07:23:40;102208.44;;;-7.41;97.05
9141;BME280;46330;50.822;7.126;2022-12-18T07:26:10;102211.38;;;-7.46;96.50
9141;BME280;46330;50.822;7.126;2022-12-18T07:28:39;102212.41;;;-7.44;97.08
9141;BME280;46330;50.822;7.126;2022-12-18T07:31:10;102218.25;;;-7.45;97.04
9141;BME280;46330;50.822;7.126;2022-12-18T07:33:39;102213.59;;;-7.51;97.31
9141;BME280;46330;50.822;7.126;2022-12-18T07:36:09;102210.81;;;-7.54;97.83
9141;BME280;46330;50.822;7.126;2022-12-18T07:38:38;102189.00;;;-7.40;98.84
9141;BME280;46330;50.822;7.126;2022-12-18T07:41:09;102196.28;;;-7.23;98.62
9141;BME280;46330;50.822;7.126;2022-12-18T07:43:37;102182.78;;;-7.00;98.39
9141;BME280;46330;50.822;7.126;2022-12-18T07:46:09;102183.22;;;-6.94;98.00
9141;BME280;46330;50.822;7.126;2022-12-18T07:48:39;102173.84;;;-6.84;97.98
9141;BME280;46330;50.822;7.126;2022-12-18T07:51:07;102176.97;;;-6.76;97.49
9141;BME280;46330;50.822;7.126;2022-12-18T07:53:35;102177.53;;;-6.69;97.45
9141;BME280;46330;50.822;7.126;2022-12-18T07:56:06;102178.78;;;-6.64;97.01
9141;BME280;46330;50.822;7.126;2022-12-18T07:58:54;102176.91;;;-6.55;96.79
9141;BME280;46330;50.822;7.126;2022-12-18T08:01:24;102172.78;;;-6.53;96.33
9141;BME280;46330;50.822;7.126;2022-12-18T08:03:52;102177.34;;;-6.48;95.84
9141;BME280;46330;50.822;7.126;2022-12-18T08:06:20;102168.06;;;-6.48;95.78
9141;BME280;46330;50.822;7.126;2022-12-18T08:08:51;102159.97;;;-6.42;95.51
9141;BME280;46330;50.822;7.126;2022-12-18T08:11:19;102153.22;;;-6.42;95.61
9141;BME280;46330;50.822;7.126;2022-12-18T08:13:47;102152.78;;;-6.36;95.30
9141;BME280;46330;50.822;7.126;2022-12-18T08:16:15;102140.94;;;-6.36;95.54
9141;BME280;46330;50.822;7.126;2022-12-18T08:18:44;102140.59;;;-6.29;95.42
9141;BME280;46330;50.822;7.126;2022-12-18T08:21:15;102157.88;;;-6.25;94.68
9141;BME280;46330;50.822;7.126;2022-12-18T08:23:43;102144.59;;;-6.21;94.92
9141;BME280;46330;50.822;7.126;2022-12-18T08:26:12;102133.28;;;-6.13;95.04
9141;BME280;46330;50.822;7.126;2022-12-18T08:28:40;102137.38;;;-6.03;94.55
9141;BME280;46330;50.822;7.126;2022-12-18T08:31:09;102139.66;;;-5.94;94.22
9141;BME280;46330;50.822;7.126;2022-12-18T08:33:38;102129.94;;;-5.88;94.00
9141;BME280;46330;50.822;7.126;2022-12-18T08:36:09;102118.38;;;-5.83;93.87
9141;BME280;46330;50.822;7.126;2022-12-18T08:38:37;102128.09;;;-5.78;93.40
9141;BME280;46330;50.822;7.126;2022-12-18T08:41:06;102117.56;;;-5.71;93.75
9141;BME280;46330;50.822;7.126;2022-12-18T08:43:34;102134.84;;;-5.67;93.04
9141;BME280;46330;50.822;7.126;2022-12-18T08:46:20;102125.06;;;-5.61;93.01
9141;BME280;46330;50.822;7.126;2022-12-18T08:48:50;102134.38;;;-5.61;92.53
9141;BME280;46330;50.822;7.126;2022-12-18T08:51:20;102129.00;;;-5.53;92.82
9141;BME280;46330;50.822;7.126;2022-12-18T08:53:48;102130.63;;;-5.42;92.22
9141;BME280;46330;50.822;7.126;2022-12-18T08:56:16;102121.53;;;-5.38;91.83
9141;BME280;46330;50.822;7.126;2022-12-18T08:58:44;102118.59;;;-5.31;91.53
9141;BME280;46330;50.822;7.126;2022-12-18T09:01:12;102122.56;;;-5.23;91.61
9141;BME280;46330;50.822;7.126;2022-12-18T09:03:40;102119.97;;;-5.11;91.76
9141;BME280;46330;50.822;7.126;2022-12-18T09:06:13;102112.72;;;-5.05;91.07
9141;BME280;46330;50.822;7.126;2022-12-18T09:08:43;102121.19;;;-4.93;90.96
9141;BME280;46330;50.822;7.126;2022-12-18T09:11:14;102116.97;;;-4.93;90.45
9141;BME280;46330;50.822;7.126;2022-12-18T09:13:42;102112.47;;;-4.83;89.91
9141;BME280;46330;50.822;7.126;2022-12-18T09:16:09;102119.63;;;-4.78;89.95
9141;BME280;46330;50.822;7.126;2022-12-18T09:18:37;102116.50;;;-4.74;89.64
9141;BME280;46330;50.822;7.126;2022-12-18T09:21:10;102124.06;;;-4.75;89.07
9141;BME280;46330;50.822;7.126;2022-12-18T09:23:38;102118.38;;;-4.71;90.06
9141;BME280;46330;50.822;7.126;2022-12-18T09:26:07;102121.91;;;-4.69;89.53
9141;BME280;46330;50.822;7.126;2022-12-18T09:28:35;102118.19;;;-4.61;89.36
9141;BME280;46330;50.822;7.126;2022-12-18T09:31:06;102111.31;;;-4.62;89.67
9141;BME280;46330;50.822;7.126;2022-12-18T09:33:35;102104.25;;;-4.53;89.26
9141;BME280;46330;50.822;7.126;2022-12-18T09:36:05;102109.94;;;-4.44;89.55
9141;BME280;46330;50.822;7.126;2022-12-18T09:38:34;102101.78;;;-4.25;89.01
9141;BME280;46330;50.822;7.126;2022-12-18T09:41:05;102098.84;;;-4.18;88.41
9141;BME280;46330;50.822;7.126;2022-12-18T09:43:40;102104.00;;;-4.04;88.46
9141;BME280;46330;50.822;7.126;2022-12-18T09:46:15;102099.97;;;-4.00;88.14
9141;BME280;46330;50.822;7.126;2022-12-18T09:48:47;102086.09;;;-3.91;88.12
9141;BME280;46330;50.822;7.126;2022-12-18T09:51:21;102073.91;;;-3.82;87.51
9141;BME280;46330;50.822;7.126;2022-12-18T09:53:55;102076.31;;;-3.70;87.23
9141;BME280;46330;50.822;7.126;2022-12-18T09:56:27;102090.63;;;-3.59;86.23
9141;BME280;46330;50.822;7.126;2022-12-18T09:58:59;102079.88;;;-3.53;85.98
9141;BME280;46330;50.822;7.126;2022-12-18T10:01:28;102074.63;;;-3.42;85.36
9141;BME280;46330;50.822;7.126;2022-12-18T10:04:09;102065.75;;;-3.34;85.06
9141;BME280;46330;50.822;7.126;2022-12-18T10:06:44;102058.59;;;-3.24;85.59
9141;BME280;46330;50.822;7.126;2022-12-18T10:09:21;102060.63;;;-3.19;84.61
9141;BME280;46330;50.822;7.126;2022-12-18T10:12:00;102061.78;;;-3.14;84.21
9141;BME280;46330;50.822;7.126;2022-12-18T10:14:41;102054.03;;;-3.01;84.00
9141;BME280;46330;50.822;7.126;2022-12-18T10:17:18;102062.41;;;-3.03;83.28
9141;BME280;46330;50.822;7.126;2022-12-18T10:19:53;102063.31;;;-3.03;83.15
9141;BME280;46330;50.822;7.126;2022-12-18T10:22:36;102051.91;;;-2.93;83.52
9141;BME280;46330;50.822;7.126;2022-12-18T10:25:17;102063.81;;;-2.79;82.55
9141;BME280;46330;50.822;7.126;2022-12-18T10:27:47;102066.72;;;-2.73;82.07
9141;BME280;46330;50.822;7.126;2022-12-18T10:30:19;102052.25;;;-2.73;81.58
9141;BME280;46330;50.822;7.126;2022-12-18T10:32:47;102060.88;;;-2.71;81.48
9141;BME280;46330;50.822;7.126;2022-12-18T10:35:19;102041.56;;;-2.65;81.41
9141;BME280;46330;50.822;7.126;2022-12-18T10:38:01;102043.13;;;-2.53;81.31
9141;BME280;46330;50.822;7.126;2022-12-18T10:40:29;102048.41;;;-2.50;81.24
9141;BME280;46330;50.822;7.126;2022-12-18T10:43:05;102047.72;;;-2.47;80.45
9141;BME280;46330;50.822;7.126;2022-12-18T10:45:39;102044.13;;;-2.35;79.70
9141;BME280;46330;50.822;7.126;2022-12-18T10:48:18;102029.88;;;-2.15;79.84
9141;BME280;46330;50.822;7.126;2022-12-18T10:50:48;102045.97;;;-2.32;77.98
9141;BME280;46330;50.822;7.126;2022-12-18T10:53:40;102032.56;;;-2.28;78.21
9141;BME280;46330;50.822;7.126;2022-12-18T10:56:10;102049.03;;;-2.23;78.25
9141;BME280;46330;50.822;7.126;2022-12-18T10:58:38;102046.91;;;-2.15;78.07
9141;BME280;46330;50.822;7.126;2022-12-18T11:01:10;102038.63;;;-2.26;78.08
9141;BME280;46330;50.822;7.126;2022-12-18T11:03:41;102061.53;;;-2.29;77.31
9141;BME280;46330;50.822;7.126;2022-12-18T11:06:10;102022.94;;;-2.32;76.44
9141;BME280;46330;50.822;7.126;2022-12-18T11:08:39;102017.09;;;-2.30;77.15
9141;BME280;46330;50.822;7.126;2022-12-18T11:11:18;102010.66;;;-2.38;76.45
9141;BME280;46330;50.822;7.126;2022-12-18T11:13:57;102012.22;;;-2.25;76.60
9141;BME280;46330;50.822;7.126;2022-12-18T11:16:28;102010.38;;;-2.28;77.22
9141;BME280;46330;50.822;7.126;2022-12-18T11:19:13;102020.78;;;-2.25;76.91
9141;BME280;46330;50.822;7.126;2022-12-18T11:21:42;102004.28;;;-2.30;77.07
9141;BME280;46330;50.822;7.126;2022-12-18T11:24:19;102026.78;;;-2.24;77.11
9141;BME280;46330;50.822;7.126;2022-12-18T11:26:48;102038.84;;;-2.38;76.68
9141;BME280;46330;50.822;7.126;2022-12-18T11:29:26;102014.28;;;-2.34;76.96
9141;BME280;46330;50.822;7.126;2022-12-18T11:32:20;102029.50;;;-2.37;76.86
9141;BME280;46330;50.822;7.126;2022-12-18T11:34:57;102009.41;;;-2.30;76.91
9141;BME280;46330;50.822;7.126;2022-12-18T11:37:25;102008.91;;;-2.39;77.52
9141;BME280;46330;50.822;7.126;2022-12-18T11:39:57;102008.91;;;-2.39;77.31
9141;BME280;46330;50.822;7.126;2022-12-18T11:42:34;102015.84;;;-2.52;77.18
9141;BME280;46330;50.822;7.126;2022-12-18T11:45:21;101994.97;;;-2.44;77.48
9141;BME280;46330;50.822;7.126;2022-12-18T11:47:57;101998.94;;;-2.49;77.98
9141;BME280;46330;50.822;7.126;2022-12-18T11:50:30;101993.03;;;-2.48;78.11
9141;BME280;46330;50.822;7.126;2022-12-18T11:52:59;101975.81;;;-2.50;77.89
9141;BME280;46330;50.822;7.126;2022-12-18T11:55:37;102005.66;;;-2.51;78.31
9141;BME280;46330;50.822;7.126;2022-12-18T11:58:13;101986.13;;;-2.49;78.65
9141;BME280;46330;50.822;7.126;2022-12-18T12:00:47;101997.66;;;-2.57;78.65
9141;BME280;46330;50.822;7.126;2022-12-18T12:03:38;101987.34;;;-2.58;78.72
9141;BME280;46330;50.822;7.126;2022-12-18T12:06:11;101980.34;;;-2.61;78.89
9141;BME280;46330;50.822;7.126;2022-12-18T12:08:56;101977.94;;;-2.58;79.16
9141;BME280;46330;50.822;7.126;2022-12-18T12:11:37;101995.88;;;-2.58;79.17
9141;BME280;46330;50.822;7.126;2022-12-18T12:14:19;101965.47;;;-2.68;79.22
9141;BME280;46330;50.822;7.126;2022-12-18T12:16:54;101961.81;;;-2.57;79.59
9141;BME280;46330;50.822;7.126;2022-12-18T12:19:35;101980.44;;;-2.59;79.39
9141;BME280;46330;50.822;7.126;2022-12-18T12:22:11;101966.50;;;-2.64;79.72
9141;BME280;46330;50.822;7.126;2022-12-18T12:24:52;101972.03;;;-2.57;79.66
9141;BME280;46330;50.822;7.126;2022-12-18T12:27:28;101973.88;;;-2.54;79.85
9141;BME280;46330;50.822;7.126;2022-12-18T12:30:04;101954.22;;;-2.55;79.74
9141;BME280;46330;50.822;7.126;2022-12-18T12:32:48;101964.28;;;-2.58;79.27
9141;BME280;46330;50.822;7.126;2022-12-18T12:35:29;101959.25;;;-2.57;80.06
9141;BME280;46330;50.822;7.126;2022-12-18T12:38:05;101945.81;;;-2.53;79.93
9141;BME280;46330;50.822;7.126;2022-12-18T12:40:41;101952.44;;;-2.56;79.48
9141;BME280;46330;50.822;7.126;2022-12-18T12:43:29;101941.03;;;-2.47;79.90
9141;BME280;46330;50.822;7.126;2022-12-18T12:46:05;101947.88;;;-2.46;80.36
9141;BME280;46330;50.822;7.126;2022-12-18T12:48:42;101936.78;;;-2.46;80.24
9141;BME280;46330;50.822;7.126;2022-12-18T12:51:16;101936.78;;;-2.46;80.21
9141;BME280;46330;50.822;7.126;2022-12-18T12:53:46;101927.41;;;-2.46;80.16
9141;BME280;46330;50.822;7.126;2022-12-18T12:56:16;101932.78;;;-2.41;80.31
9141;BME280;46330;50.822;7.126;2022-12-18T12:58:52;101929.94;;;-2.46;79.99
9141;BME280;46330;50.822;7.126;2022-12-18T13:01:30;101916.34;;;-2.45;80.11
9141;BME280;46330;50.822;7.126;2022-12-18T13:04:08;101924.84;;;-2.46;80.14
9141;BME280;46330;50.822;7.126;2022-12-18T13:06:47;101926.03;;;-2.39;80.31
9141;BME280;46330;50.822;7.126;2022-12-18T13:09:17;101918.47;;;-2.38;79.88
9141;BME280;46330;50.822;7.126;2022-12-18T13:11:47;101922.06;;;-2.34;79.77
9141;BME280;46330;50.822;7.126;2022-12-18T13:14:34;101921.25;;;-2.33;79.41
9141;BME280;46330;50.822;7.126;2022-12-18T13:17:27;101923.19;;;-2.29;79.48
9141;BME280;46330;50.822;7.126;2022-12-18T13:20:09;101913.72;;;-2.30;79.48
9141;BME280;46330;50.822;7.126;2022-12-18T13:22:42;101920.03;;;-2.24;79.19
9141;BME280;46330;50.822;7.126;2022-12-18T13:25:34;101919.25;;;-2.23;79.60
9141;BME280;46330;50.822;7.126;2022-12-18T13:28:07;101925.28;;;-2.22;79.40
9141;BME280;46330;50.822;7.126;2022-12-18T13:33:49;101920.78;;;-2.10;79.20